createdAt,value
2019-06-01T00:02:09.341Z,101105.64
2019-06-01T00:04:38.641Z,101101.81
2019-06-01T00:07:07.508Z,101101.02
2019-06-01T00:09:36.177Z,101103.09
2019-06-01T00:12:04.843Z,101102.77
2019-06-01T00:14:33.540Z,101099.36
2019-06-01T00:17:02.215Z,101099.91
2019-06-01T00:19:30.889Z,101096.89
2019-06-01T00:21:59.589Z,101097.70
2019-06-01T00:24:28.255Z,101103.02
2019-06-01T00:26:56.962Z,101102.02
2019-06-01T00:29:25.653Z,101103.09
2019-06-01T00:31:54.334Z,101099.96
2019-06-01T00:34:23.041Z,101098.63
2019-06-01T00:36:51.999Z,101097.39
2019-06-01T00:39:20.779Z,101097.86
2019-06-01T00:41:50.240Z,101103.81
2019-06-01T00:44:18.940Z,101098.05
2019-06-01T00:46:48.724Z,101100.77
2019-06-01T00:49:17.491Z,101103.59
2019-06-01T00:51:47.026Z,101102.34
2019-06-01T00:54:15.737Z,101100.66
2019-06-01T00:56:45.590Z,101097.32
2019-06-01T00:59:14.397Z,101098.56
2019-06-01T01:01:43.876Z,101097.45
2019-06-01T01:04:12.745Z,101092.33
2019-06-01T01:06:41.444Z,101093.14
2019-06-01T01:09:10.154Z,101100.27
2019-06-01T01:11:38.877Z,101100.89
2019-06-01T01:14:07.690Z,101104.64
2019-06-01T01:16:36.351Z,101103.95
2019-06-01T01:19:06.503Z,101108.66
2019-06-01T01:21:35.941Z,101103.44
2019-06-01T01:24:04.920Z,101103.80
2019-06-01T01:26:33.618Z,101103.82
2019-06-01T01:29:02.330Z,101098.33
2019-06-01T01:31:30.995Z,101097.91
2019-06-01T01:33:59.686Z,101102.66
2019-06-01T01:36:28.390Z,101103.45
2019-06-01T01:38:58.242Z,101102.58
2019-06-01T01:41:27.133Z,101108.14
2019-06-01T01:43:56.557Z,101109.11
2019-06-01T01:46:25.286Z,101117.62
2019-06-01T01:48:54.332Z,101113.20
2019-06-01T01:51:23.144Z,101108.87
2019-06-01T01:53:53.011Z,101104.23
2019-06-01T01:56:21.795Z,101104.67
2019-06-01T01:58:50.498Z,101107.95
2019-06-01T02:01:22.750Z,101104.15
2019-06-01T02:03:51.427Z,101103.92
2019-06-01T02:06:20.018Z,101106.46
2019-06-01T02:08:48.707Z,101101.78
2019-06-01T02:11:17.369Z,101099.55
2019-06-01T02:13:46.071Z,101109.77
2019-06-01T02:16:14.731Z,101102.14
2019-06-01T02:18:43.451Z,101106.12
2019-06-01T02:21:12.138Z,101106.98
2019-06-01T02:23:40.846Z,101106.38
2019-06-01T02:26:09.563Z,101110.05
2019-06-01T02:28:38.276Z,101100.33
2019-06-01T02:31:06.970Z,101099.25
2019-06-01T02:33:35.640Z,101092.72
2019-06-01T02:36:05.393Z,101097.33
2019-06-01T02:38:34.200Z,101089.55
2019-06-01T02:41:05.076Z,101094.14
2019-06-01T02:43:33.670Z,101093.02
2019-06-01T02:46:02.928Z,101091.79
2019-06-01T02:48:32.912Z,101090.47
2019-06-01T02:51:01.854Z,101089.26
2019-06-01T02:53:30.729Z,101087.34
2019-06-01T02:55:59.947Z,101099.20
2019-06-01T02:58:28.671Z,101083.45
2019-06-01T03:01:36.305Z,101089.58
2019-06-01T03:04:08.347Z,101084.89
2019-06-01T03:06:39.809Z,101093.19
2019-06-01T03:09:09.261Z,101101.59
2019-06-01T03:11:39.236Z,101099.20
2019-06-01T03:14:09.698Z,101107.92
2019-06-01T03:16:40.420Z,101101.66
2019-06-01T03:19:09.629Z,101101.37
2019-06-01T03:21:38.760Z,101099.14
2019-06-01T03:24:09.891Z,101102.69
2019-06-01T03:26:44.366Z,101101.58
2019-06-01T03:29:19.585Z,101099.64
2019-06-01T03:31:48.346Z,101105.78
2019-06-01T03:34:17.084Z,101099.73
2019-06-01T03:36:45.818Z,101111.08
2019-06-01T03:39:14.575Z,101108.03
2019-06-01T03:41:43.614Z,101105.34
2019-06-01T03:44:12.998Z,101097.03
2019-06-01T03:46:41.891Z,101100.43
2019-06-01T03:49:11.853Z,101094.77
2019-06-01T03:51:40.721Z,101101.71
2019-06-01T03:54:10.128Z,101098.87
2019-06-01T03:56:39.092Z,101100.11
2019-06-01T03:59:07.781Z,101105.05
2019-06-01T04:01:36.892Z,101107.39
2019-06-01T04:04:07.137Z,101099.80
2019-06-01T04:06:36.074Z,101092.81
2019-06-01T04:09:07.748Z,101102.77
2019-06-01T04:11:36.697Z,101101.59
2019-06-01T04:14:05.942Z,101102.02
2019-06-01T04:16:34.611Z,101097.36
2019-06-01T04:19:03.780Z,101109.03
2019-06-01T04:21:32.454Z,101108.91
2019-06-01T04:24:01.869Z,101114.45
2019-06-01T04:26:30.715Z,101115.05
2019-06-01T04:28:59.475Z,101120.53
2019-06-01T04:31:28.161Z,101122.93
2019-06-01T04:33:56.898Z,101124.54
2019-06-01T04:36:25.575Z,101115.58
2019-06-01T04:38:54.243Z,101125.00
2019-06-01T04:41:22.937Z,101122.77
2019-06-01T04:43:51.666Z,101118.02
2019-06-01T04:46:20.343Z,101112.28
2019-06-01T04:48:49.006Z,101120.28
2019-06-01T04:51:17.698Z,101116.67
2019-06-01T04:53:46.362Z,101113.70
2019-06-01T04:56:15.312Z,101115.08
2019-06-01T04:58:44.011Z,101111.36
2019-06-01T05:01:13.053Z,101116.09
2019-06-01T05:03:41.835Z,101115.37
2019-06-01T05:06:11.343Z,101113.53
2019-06-01T05:08:40.080Z,101113.16
2019-06-01T05:11:10.185Z,101112.41
2019-06-01T05:13:39.370Z,101109.94
2019-06-01T05:16:08.045Z,101120.36
2019-06-01T05:18:36.719Z,101119.18
2019-06-01T05:21:06.408Z,101120.12
2019-06-01T05:23:35.232Z,101115.75
2019-06-01T05:26:03.989Z,101109.08
2019-06-01T05:28:32.671Z,101105.77
2019-06-01T05:31:01.350Z,101103.02
2019-06-01T05:33:37.478Z,101104.11
2019-06-01T05:36:00.444Z,101102.89
2019-06-01T05:38:29.124Z,101100.36
2019-06-01T05:40:57.796Z,101100.39
2019-06-01T05:43:26.477Z,101101.84
2019-06-01T05:45:55.137Z,101105.18
2019-06-01T05:48:28.504Z,101098.63
2019-06-01T05:50:54.245Z,101099.03
2019-06-01T05:53:23.149Z,101098.02
2019-06-01T05:55:51.863Z,101093.47
2019-06-01T05:58:21.782Z,101098.43
2019-06-01T06:00:50.598Z,101093.03
2019-06-01T06:03:22.265Z,101091.78
2019-06-01T06:05:49.674Z,101097.39
2019-06-01T06:08:18.359Z,101089.52
2019-06-01T06:10:47.054Z,101095.83
2019-06-01T06:13:15.715Z,101088.30
2019-06-01T06:15:44.407Z,101086.88
2019-06-01T06:18:13.687Z,101080.09
2019-06-01T06:20:42.517Z,101071.88
2019-06-01T06:23:12.212Z,101065.95
2019-06-01T06:25:41.497Z,101074.93
2019-06-01T06:28:10.275Z,101071.20
2019-06-01T06:30:38.981Z,101071.44
2019-06-01T06:33:07.668Z,101070.89
2019-06-01T06:35:36.354Z,101066.78
2019-06-01T06:38:05.059Z,101063.33
2019-06-01T06:40:33.731Z,101063.70
2019-06-01T06:43:02.410Z,101073.67
2019-06-01T06:45:31.100Z,101070.16
2019-06-01T06:48:00.108Z,101057.16
2019-06-01T06:50:28.784Z,101057.16
2019-06-01T06:52:57.472Z,101059.62
2019-06-01T06:55:26.256Z,101063.79
2019-06-01T06:57:54.868Z,101058.61
2019-06-01T07:00:24.811Z,101062.40
2019-06-01T07:02:53.645Z,101073.50
2019-06-01T07:05:23.481Z,101067.03
2019-06-01T07:07:52.190Z,101063.53
2019-06-01T07:10:22.085Z,101071.87
2019-06-01T07:12:50.933Z,101074.62
2019-06-01T07:15:19.671Z,101067.13
2019-06-01T07:17:48.338Z,101069.93
2019-06-01T07:20:17.201Z,101069.93
2019-06-01T07:22:45.842Z,101069.84
2019-06-01T07:25:14.659Z,101069.84
2019-06-01T07:27:43.332Z,101072.59
2019-06-01T07:30:12.193Z,101074.50
2019-06-01T07:32:40.885Z,101073.45
2019-06-01T07:35:09.704Z,101069.91
2019-06-01T07:37:38.375Z,101069.92
2019-06-01T07:40:13.066Z,101064.75
2019-06-01T07:42:38.965Z,101069.84
2019-06-01T07:45:08.056Z,101061.66
2019-06-01T07:47:36.710Z,101066.52
2019-06-01T07:50:06.014Z,101064.05
2019-06-01T07:52:34.698Z,101070.11
2019-06-01T07:55:03.466Z,101069.98
2019-06-01T07:57:32.150Z,101065.39
2019-06-01T08:00:00.808Z,101061.78
2019-06-01T08:02:30.757Z,101063.36
2019-06-01T08:04:59.636Z,101065.83
2019-06-01T08:07:29.234Z,101065.20
2019-06-01T08:09:58.101Z,101067.37
2019-06-01T08:12:27.509Z,101070.34
2019-06-01T08:14:56.214Z,101065.06
2019-06-01T08:17:25.974Z,101067.94
2019-06-01T08:19:54.811Z,101065.27
2019-06-01T08:22:23.860Z,101054.24
2019-06-01T08:24:52.629Z,101052.73
2019-06-01T08:27:22.398Z,101063.33
2019-06-01T08:29:51.220Z,101055.48
2019-06-01T08:32:19.900Z,101058.44
2019-06-01T08:34:48.556Z,101058.77
2019-06-01T08:37:17.251Z,101049.96
2019-06-01T08:39:45.914Z,101049.88
2019-06-01T08:42:14.575Z,101060.57
2019-06-01T08:44:43.260Z,101058.27
2019-06-01T08:47:12.005Z,101061.32
2019-06-01T08:49:40.707Z,101051.85
2019-06-01T08:52:09.381Z,101042.48
2019-06-01T08:54:38.039Z,101042.81
2019-06-01T08:57:06.699Z,101034.77
2019-06-01T08:59:35.382Z,101035.48
2019-06-01T09:02:04.191Z,101035.12
2019-06-01T09:04:32.870Z,101035.27
2019-06-01T09:07:01.542Z,101035.47
2019-06-01T09:09:31.014Z,101028.57
2019-06-01T09:11:59.749Z,101030.08
2019-06-01T09:14:29.193Z,101025.70
2019-06-01T09:16:57.950Z,101032.27
2019-06-01T09:19:27.341Z,101032.34
2019-06-01T09:21:56.059Z,101027.34
2019-06-01T09:24:25.772Z,101019.41
2019-06-01T09:26:54.513Z,101026.81
2019-06-01T09:29:23.196Z,101033.09
2019-06-01T09:31:51.913Z,101028.95
2019-06-01T09:34:20.567Z,101024.59
2019-06-01T09:36:49.222Z,101023.70
2019-06-01T09:39:17.911Z,101028.28
2019-06-01T09:41:46.563Z,101023.94
2019-06-01T09:44:15.258Z,101032.12
2019-06-01T09:46:43.911Z,101020.68
2019-06-01T09:49:12.573Z,101014.13
2019-06-01T09:51:41.274Z,101016.68
2019-06-01T09:54:09.922Z,101014.22
2019-06-01T09:56:39.899Z,101013.17
2019-06-01T09:59:08.801Z,101009.01
2019-06-01T10:01:38.746Z,101006.22
2019-06-01T10:04:09.180Z,101001.30
2019-06-01T10:06:38.705Z,100999.30
2019-06-01T10:09:09.093Z,101000.05
2019-06-01T10:11:38.094Z,101000.47
2019-06-01T10:14:07.045Z,101008.45
2019-06-01T10:16:36.787Z,101004.42
2019-06-01T10:19:05.670Z,101002.98
2019-06-01T10:21:34.344Z,101002.78
2019-06-01T10:24:03.073Z,101002.95
2019-06-01T10:26:31.707Z,101007.38
2019-06-01T10:29:00.406Z,101007.02
2019-06-01T10:31:30.438Z,100995.44
2019-06-01T10:33:59.253Z,100993.26
2019-06-01T10:36:28.115Z,100995.52
2019-06-01T10:38:56.779Z,100999.09
2019-06-01T10:41:25.466Z,100988.09
2019-06-01T10:43:54.132Z,100986.98
2019-06-01T10:46:22.797Z,100987.61
2019-06-01T10:48:51.550Z,100976.28
2019-06-01T10:51:20.184Z,100970.66
2019-06-01T10:53:48.853Z,100969.10
2019-06-01T10:56:17.725Z,100978.50
2019-06-01T10:58:59.247Z,100976.23
2019-06-01T11:01:16.804Z,100981.80
2019-06-01T11:03:45.463Z,100983.48
2019-06-01T11:06:14.126Z,100979.45
2019-06-01T11:08:43.163Z,100983.62
2019-06-01T11:11:12.117Z,100984.57
2019-06-01T11:13:41.146Z,100970.85
2019-06-01T11:16:09.927Z,100973.69
2019-06-01T11:18:39.620Z,100963.12
2019-06-01T11:21:08.461Z,100962.33
2019-06-01T11:23:37.473Z,100952.89
2019-06-01T11:26:06.337Z,100971.42
2019-06-01T11:28:36.175Z,100963.42
2019-06-01T11:31:05.460Z,100953.20
2019-06-01T11:33:34.284Z,100957.48
2019-06-01T11:36:03.081Z,100952.15
2019-06-01T11:38:31.739Z,100954.22
2019-06-01T11:41:00.435Z,100949.30
2019-06-01T11:43:29.093Z,100952.21
2019-06-01T11:45:58.021Z,100947.72
2019-06-01T11:48:26.692Z,100956.58
2019-06-01T11:50:55.358Z,100950.73
2019-06-01T11:53:24.050Z,100950.72
2019-06-01T11:55:52.723Z,100945.20
2019-06-01T11:58:21.419Z,100934.52
2019-06-01T12:00:50.075Z,100936.59
2019-06-01T12:03:18.763Z,100935.81
2019-06-01T12:05:47.455Z,100932.01
2019-06-01T12:08:16.102Z,100924.06
2019-06-01T12:10:45.310Z,100923.04
2019-06-01T12:13:14.037Z,100923.09
2019-06-01T12:15:42.702Z,100919.00
2019-06-01T12:18:11.363Z,100904.84
2019-06-01T12:20:40.705Z,100906.89
2019-06-01T12:23:09.619Z,100905.24
2019-06-01T12:25:38.368Z,100920.81
2019-06-01T12:28:07.025Z,100907.75
2019-06-01T12:30:35.723Z,100904.89
2019-06-01T12:33:04.508Z,100902.05
2019-06-01T12:35:33.166Z,100910.36
2019-06-01T12:38:06.418Z,100902.48
2019-06-01T12:40:32.266Z,100898.47
2019-06-01T12:43:00.984Z,100896.44
2019-06-01T12:45:29.648Z,100889.86
2019-06-01T12:47:58.777Z,100894.83
2019-06-01T12:50:27.555Z,100883.91
2019-06-01T12:52:56.242Z,100883.22
2019-06-01T12:55:24.963Z,100884.25
2019-06-01T12:57:53.621Z,100885.05
2019-06-01T13:00:22.407Z,100883.19
2019-06-01T13:03:03.406Z,100877.56
2019-06-01T13:05:21.571Z,100878.34
2019-06-01T13:07:59.771Z,100870.92
2019-06-01T13:10:20.829Z,100865.62
2019-06-01T13:12:49.531Z,100874.78
2019-06-01T13:15:19.017Z,100876.16
2019-06-01T13:17:47.708Z,100867.20
2019-06-01T13:20:16.511Z,100855.77
2019-06-01T13:22:45.626Z,100852.21
2019-06-01T13:25:14.938Z,100858.79
2019-06-01T13:27:44.255Z,100851.16
2019-06-01T13:30:13.719Z,100850.52
2019-06-01T13:32:42.586Z,100850.44
2019-06-01T13:35:11.611Z,100842.95
2019-06-01T13:37:40.322Z,100831.13
2019-06-01T13:40:09.326Z,100834.59
2019-06-01T13:42:37.987Z,100833.50
2019-06-01T13:45:06.865Z,100831.55
2019-06-01T13:47:35.532Z,100834.27
2019-06-01T13:50:06.624Z,100830.83
2019-06-01T13:52:35.669Z,100834.91
2019-06-01T13:55:04.832Z,100827.79
2019-06-01T13:57:33.495Z,100825.12
2019-06-01T14:00:02.166Z,100826.80
2019-06-01T14:02:30.835Z,100819.16
2019-06-01T14:04:59.540Z,100818.00
2019-06-01T14:07:28.235Z,100816.34
2019-06-01T14:09:56.922Z,100811.45
2019-06-01T14:12:25.582Z,100813.66
2019-06-01T14:14:55.525Z,100819.92
2019-06-01T14:17:24.307Z,100819.76
2019-06-01T14:19:53.809Z,100825.24
2019-06-01T14:22:22.627Z,100819.26
2019-06-01T14:25:07.274Z,100817.30
2019-06-01T14:27:21.746Z,100814.38
2019-06-01T14:29:50.410Z,100813.89
2019-06-01T14:32:22.487Z,100817.90
2019-06-01T14:34:51.770Z,100815.30
2019-06-01T14:37:21.739Z,100811.77
2019-06-01T14:39:50.854Z,100806.50
2019-06-01T14:42:19.650Z,100809.42
2019-06-01T14:44:49.297Z,100804.84
2019-06-01T14:47:18.804Z,100796.28
2019-06-01T14:49:47.646Z,100797.09
2019-06-01T14:52:16.320Z,100791.55
2019-06-01T14:54:44.967Z,100789.34
2019-06-01T14:57:13.750Z,100798.44
2019-06-01T14:59:42.508Z,100790.47
2019-06-01T15:02:11.174Z,100792.31
2019-06-01T15:04:39.864Z,100783.32
2019-06-01T15:07:08.523Z,100782.09
2019-06-01T15:09:37.181Z,100784.38
2019-06-01T15:12:06.055Z,100775.66
2019-06-01T15:14:34.740Z,100778.16
2019-06-01T15:17:03.490Z,100767.45
2019-06-01T15:19:32.308Z,100765.32
2019-06-01T15:22:03.478Z,100760.75
2019-06-01T15:24:32.322Z,100762.35
2019-06-01T15:27:01.006Z,100765.54
2019-06-01T15:29:29.664Z,100769.62
2019-06-01T15:31:58.349Z,100772.59
2019-06-01T15:34:27.097Z,100764.39
2019-06-01T15:36:55.782Z,100755.42
2019-06-01T15:39:25.540Z,100755.53
2019-06-01T15:41:55.242Z,100765.86
2019-06-01T15:44:23.941Z,100763.38
2019-06-01T15:46:53.742Z,100751.61
2019-06-01T15:49:22.838Z,100757.65
2019-06-01T15:51:51.836Z,100753.38
2019-06-01T15:54:20.616Z,100748.73
2019-06-01T15:56:49.304Z,100746.83
2019-06-01T15:59:17.958Z,100735.37
2019-06-01T16:01:46.653Z,100731.86
2019-06-01T16:04:15.345Z,100725.80
2019-06-01T16:06:44.018Z,100727.63
2019-06-01T16:09:12.683Z,100742.35
2019-06-01T16:11:41.347Z,100730.61
2019-06-01T16:14:10.005Z,100728.59
2019-06-01T16:16:38.695Z,100735.06
2019-06-01T16:19:08.026Z,100728.91
2019-06-01T16:21:36.908Z,100731.65
2019-06-01T16:24:06.143Z,100722.42
2019-06-01T16:26:34.974Z,100724.34
2019-06-01T16:29:04.985Z,100731.20
2019-06-01T16:31:33.869Z,100731.42
2019-06-01T16:34:02.878Z,100724.44
2019-06-01T16:36:31.718Z,100729.52
2019-06-01T16:39:04.527Z,100732.02
2019-06-01T16:41:30.803Z,100727.22
2019-06-01T16:43:59.583Z,100722.81
2019-06-01T16:46:28.228Z,100721.25
2019-06-01T16:48:57.469Z,100719.45
2019-06-01T16:51:26.324Z,100714.48
2019-06-01T16:53:55.756Z,100713.92
2019-06-01T16:56:24.536Z,100708.34
2019-06-01T16:58:53.183Z,100707.18
2019-06-01T17:01:21.860Z,100701.79
2019-06-01T17:03:50.534Z,100702.40
2019-06-01T17:06:19.273Z,100701.04
2019-06-01T17:08:47.949Z,100698.98
2019-06-01T17:11:16.647Z,100696.48
2019-06-01T17:13:45.300Z,100696.80
2019-06-01T17:16:13.973Z,100697.12
2019-06-01T17:18:42.661Z,100702.11
2019-06-01T17:21:11.317Z,100706.02
2019-06-01T17:23:39.971Z,100711.02
2019-06-01T17:26:08.970Z,100707.15
2019-06-01T17:28:37.681Z,100712.99
2019-06-01T17:31:06.508Z,100712.10
2019-06-01T17:33:35.158Z,100708.32
2019-06-01T17:36:04.739Z,100705.16
2019-06-01T17:38:33.492Z,100703.80
2019-06-01T17:41:02.285Z,100698.88
2019-06-01T17:43:30.876Z,100696.11
2019-06-01T17:46:00.467Z,100690.14
2019-06-01T17:48:29.487Z,100691.90
2019-06-01T17:50:58.164Z,100692.14
2019-06-01T17:53:26.892Z,100693.45
2019-06-01T17:55:55.565Z,100692.38
2019-06-01T17:58:24.497Z,100682.02
2019-06-01T18:00:53.249Z,100686.56
2019-06-01T18:03:21.985Z,100684.16
2019-06-01T18:05:50.703Z,100683.12
2019-06-01T18:08:19.533Z,100683.52
2019-06-01T18:10:54.298Z,100679.93
2019-06-01T18:13:18.645Z,100684.12
2019-06-01T18:15:49.991Z,100684.42
2019-06-01T18:18:17.922Z,100683.41
2019-06-01T18:20:46.776Z,100686.70
2019-06-01T18:23:15.426Z,100693.76
2019-06-01T18:25:44.247Z,100702.86
2019-06-01T18:28:19.009Z,100697.58
2019-06-01T18:30:43.544Z,100692.45
2019-06-01T18:33:13.179Z,100694.96
2019-06-01T18:35:42.085Z,100690.39
2019-06-01T18:38:12.763Z,100699.92
2019-06-01T18:40:41.280Z,100695.93
2019-06-01T18:43:14.246Z,100698.27
2019-06-01T18:45:42.145Z,100695.39
2019-06-01T18:48:12.250Z,100700.39
2019-06-01T18:50:41.095Z,100706.24
2019-06-01T18:53:10.115Z,100693.84
2019-06-01T18:55:38.814Z,100693.67
2019-06-01T18:58:08.259Z,100697.71
2019-06-01T19:00:39.581Z,100704.25
2019-06-01T19:03:09.008Z,100709.58
2019-06-01T19:05:37.873Z,100706.78
2019-06-01T19:08:07.191Z,100703.77
2019-06-01T19:10:36.006Z,100709.78
2019-06-01T19:13:05.602Z,100715.95
2019-06-01T19:15:34.548Z,100715.55
2019-06-01T19:18:03.210Z,100712.90
2019-06-01T19:20:33.256Z,100711.08
2019-06-01T19:23:02.160Z,100712.98
2019-06-01T19:25:30.852Z,100710.59
2019-06-01T19:27:59.513Z,100716.48
2019-06-01T19:30:42.070Z,100720.24
2019-06-01T19:33:14.226Z,100726.41
2019-06-01T19:35:41.857Z,100732.86
2019-06-01T19:38:11.399Z,100736.63
2019-06-01T19:40:41.205Z,100736.06
2019-06-01T19:43:11.423Z,100738.95
2019-06-01T19:45:40.307Z,100744.52
2019-06-01T19:48:10.361Z,100740.41
2019-06-01T19:50:39.229Z,100739.01
2019-06-01T19:53:08.720Z,100743.03
2019-06-01T19:55:37.575Z,100737.59
2019-06-01T19:58:06.305Z,100737.83
2019-06-01T20:00:35.078Z,100735.40
2019-06-01T20:03:03.846Z,100737.25
2019-06-01T20:05:32.707Z,100739.63
2019-06-01T20:08:01.376Z,100745.19
2019-06-01T20:10:30.092Z,100734.33
2019-06-01T20:12:58.763Z,100745.80
2019-06-01T20:15:27.418Z,100740.66
2019-06-01T20:17:56.103Z,100734.44
2019-06-01T20:20:26.292Z,100739.73
2019-06-01T20:22:54.966Z,100742.09
2019-06-01T20:25:23.625Z,100737.98
2019-06-01T20:27:52.321Z,100737.63
2019-06-01T20:30:22.189Z,100739.78
2019-06-01T20:32:50.963Z,100743.12
2019-06-01T20:35:20.144Z,100732.60
2019-06-01T20:37:48.896Z,100738.97
2019-06-01T20:40:18.396Z,100736.28
2019-06-01T20:42:47.267Z,100739.40
2019-06-01T20:45:16.841Z,100735.73
2019-06-01T20:47:45.617Z,100740.23
2019-06-01T20:50:14.886Z,100742.45
2019-06-01T20:52:43.692Z,100744.47
2019-06-01T20:55:12.867Z,100743.34
2019-06-01T20:57:41.612Z,100739.95
2019-06-01T21:00:11.315Z,100734.61
2019-06-01T21:02:39.964Z,100737.30
2019-06-01T21:05:09.079Z,100735.34
2019-06-01T21:07:37.816Z,100735.05
2019-06-01T21:10:08.116Z,100736.52
2019-06-01T21:12:44.619Z,100736.54
2019-06-01T21:15:07.938Z,100733.52
2019-06-01T21:17:36.612Z,100737.75
2019-06-01T21:20:06.832Z,100739.00
2019-06-01T21:22:35.483Z,100739.63
2019-06-01T21:25:04.624Z,100737.11
2019-06-01T21:27:33.311Z,100734.88
2019-06-01T21:30:02.035Z,100736.51
2019-06-01T21:32:30.634Z,100738.00
2019-06-01T21:34:59.403Z,100740.42
2019-06-01T21:37:28.077Z,100735.95
2019-06-01T21:39:56.753Z,100735.42
2019-06-01T21:42:26.105Z,100733.38
2019-06-01T21:44:54.892Z,100732.38
2019-06-01T21:47:23.910Z,100728.87
2019-06-01T21:49:52.611Z,100732.47
2019-06-01T21:52:22.075Z,100731.69
2019-06-01T21:54:50.830Z,100732.43
2019-06-01T21:57:20.171Z,100735.08
2019-06-01T21:59:48.992Z,100735.57
2019-06-01T22:02:18.713Z,100730.55
2019-06-01T22:04:47.473Z,100729.61
2019-06-01T22:07:17.308Z,100727.18
2019-06-01T22:09:46.227Z,100728.52
2019-06-01T22:12:14.877Z,100733.56
2019-06-01T22:14:43.543Z,100731.47
2019-06-01T22:17:12.778Z,100730.70
2019-06-01T22:19:41.518Z,100728.59
2019-06-01T22:22:10.221Z,100725.14
2019-06-01T22:24:38.907Z,100721.84
2019-06-01T22:27:07.608Z,100734.84
2019-06-01T22:29:36.241Z,100727.89
2019-06-01T22:32:04.900Z,100725.86
2019-06-01T22:34:33.580Z,100729.31
2019-06-01T22:37:02.269Z,100716.34
2019-06-01T22:39:30.955Z,100714.34
2019-06-01T22:41:59.628Z,100709.08
2019-06-01T22:44:28.448Z,100706.00
2019-06-01T22:46:57.062Z,100709.71
2019-06-01T22:49:26.843Z,100708.91
2019-06-01T22:51:55.621Z,100709.95
2019-06-01T22:54:25.138Z,100708.95
2019-06-01T22:56:53.900Z,100710.02
2019-06-01T22:59:22.599Z,100710.02
2019-06-01T23:01:51.272Z,100704.33
2019-06-01T23:04:20.960Z,100708.44
2019-06-01T23:06:49.698Z,100710.02
2019-06-01T23:09:18.410Z,100711.95
2019-06-01T23:11:47.142Z,100710.98
2019-06-01T23:14:15.818Z,100709.15
2019-06-01T23:16:44.491Z,100711.29
2019-06-01T23:19:13.151Z,100707.76
2019-06-01T23:21:41.837Z,100705.75
2019-06-01T23:24:10.526Z,100706.04
2019-06-01T23:26:39.189Z,100705.25
2019-06-01T23:29:07.872Z,100701.41
2019-06-01T23:31:36.544Z,100702.88
2019-06-01T23:34:05.402Z,100705.95
2019-06-01T23:36:34.088Z,100697.64
2019-06-01T23:39:03.254Z,100703.93
2019-06-01T23:41:32.917Z,100699.89
2019-06-01T23:44:11.965Z,100696.69
2019-06-01T23:46:33.450Z,100699.54
2019-06-01T23:49:02.193Z,100692.97
2019-06-01T23:51:31.874Z,100691.22
2019-06-01T23:54:00.651Z,100691.88
2019-06-01T23:56:29.738Z,100686.36
2019-06-01T23:58:58.603Z,100689.98
